Time;durP1;ratioP1;P1;durP2;ratioP2;P2;SDS_P1;SDS_P2;PMS_P1;PMS_P2;Temp;Humidity;BMP_temperature;BMP_pressure;BME280_temperature;BME280_humidity;BME280_pressure;Samples;Min_cycle;Max_cycle;Signal;HPM_P1;HPM_P2
2021/06/17 00:00:37;;;;;;;3.90;3.60;;;;;;;19.27;73.27;100846.47;5008844;28;102349;-59
2021/06/17 00:03:05;;;;;;;4.82;3.90;;;;;;;19.27;72.79;100840.97;5009419;28;102421;-58
2021/06/17 00:05:35;;;;;;;4.10;3.80;;;;;;;19.28;72.93;100836.25;4997576;28;103937;-58
2021/06/17 00:08:04;;;;;;;3.97;3.67;;;;;;;19.28;73.17;100842.56;5008081;28;102118;-58
2021/06/17 00:10:37;;;;;;;4.28;3.88;;;;;;;19.27;73.15;100818.09;5008293;28;102463;-58
2021/06/17 00:13:05;;;;;;;4.15;3.78;;;;;;;19.26;72.94;100822.81;5007327;28;102780;-59
2021/06/17 00:15:35;;;;;;;4.00;3.70;;;;;;;19.26;73.08;100822.81;5009437;28;104214;-58
2021/06/17 00:18:02;;;;;;;4.28;3.88;;;;;;;19.26;72.70;100813.69;5007804;28;102352;-58
2021/06/17 00:20:29;;;;;;;3.97;3.63;;;;;;;19.28;73.01;100814.19;5014218;28;102571;-58
2021/06/17 00:22:57;;;;;;;3.95;3.55;;;;;;;19.26;73.01;100806.25;5009578;28;102159;-58
2021/06/17 00:25:24;;;;;;;3.70;3.40;;;;;;;19.26;73.11;100800.72;4997027;28;104127;-58
2021/06/17 00:27:52;;;;;;;3.70;3.40;;;;;;;19.27;73.16;100802.34;5005962;28;103036;-59
2021/06/17 00:30:20;;;;;;;4.20;3.53;;;;;;;19.27;72.86;100810.63;5003394;28;103617;-58
2021/06/17 00:32:46;;;;;;;3.53;3.22;;;;;;;19.28;73.14;100809.47;5007877;28;102393;-58
2021/06/17 00:35:13;;;;;;;3.95;3.65;;;;;;;19.28;72.82;100808.66;5007705;28;103931;-58
2021/06/17 00:37:40;;;;;;;3.63;3.33;;;;;;;19.27;73.05;100802.34;5000521;28;102258;-58
2021/06/17 00:40:10;;;;;;;3.80;3.50;;;;;;;19.27;73.01;100801.53;5008565;28;103666;-58
2021/06/17 00:42:37;;;;;;;4.10;3.65;;;;;;;19.27;72.95;100804.28;5010259;28;102545;-58
2021/06/17 00:45:09;;;;;;;3.78;3.30;;;;;;;19.27;73.17;100807.84;4999154;28;103916;-58
2021/06/17 00:47:36;;;;;;;3.38;3.08;;;;;;;19.26;72.93;100789.69;5007854;28;102030;-58
2021/06/17 00:50:03;;;;;;;4.07;3.78;;;;;;;19.27;72.94;100796.81;4999338;28;102426;-58
2021/06/17 00:52:30;;;;;;;3.60;3.30;;;;;;;19.28;72.90;100803.94;5006224;28;102266;-58
2021/06/17 00:54:57;;;;;;;3.67;3.35;;;;;;;19.27;72.95;100807.06;5008838;28;103947;-58
2021/06/17 00:57:25;;;;;;;3.63;3.33;;;;;;;19.28;72.88;100805.91;5006909;28;104055;-58
2021/06/17 00:59:52;;;;;;;3.47;3.17;;;;;;;19.27;73.01;100812.56;4979346;28;102577;-58
2021/06/17 01:02:19;;;;;;;3.78;3.10;;;;;;;19.27;72.76;100818.09;4993548;28;102501;-59
2021/06/17 01:04:46;;;;;;;3.40;3.10;;;;;;;19.26;73.05;100817.28;5008692;28;104079;-58
2021/06/17 01:07:23;;;;;;;3.20;2.97;;;;;;;19.25;72.91;100815.63;5002347;28;102624;-58
2021/06/17 01:10:03;;;;;;;3.20;3.00;;;;;;;19.25;72.87;100821.16;5009635;28;102208;-58
2021/06/17 01:12:41;;;;;;;3.47;3.17;;;;;;;19.24;72.74;100822.31;5009417;28;102593;-59
2021/06/17 01:15:12;;;;;;;3.63;3.33;;;;;;;19.24;72.78;100821.50;4989291;28;103927;-58
2021/06/17 01:17:47;;;;;;;3.63;3.33;;;;;;;19.24;73.13;100808.50;5008294;28;103161;-58
2021/06/17 01:20:23;;;;;;;3.53;3.22;;;;;;;19.23;73.06;100812.41;4991197;28;102539;-58
2021/06/17 01:22:52;;;;;;;3.55;3.17;;;;;;;19.24;72.60;100819.53;5016428;28;102669;-58
2021/06/17 01:25:37;;;;;;;3.85;3.47;;;;;;;19.24;72.68;100818.75;5002766;28;103748;-58
2021/06/17 01:28:11;;;;;;;3.22;2.92;;;;;;;19.24;72.99;100818.75;5008604;28;102348;-58
2021/06/17 01:30:57;;;;;;;3.00;2.80;;;;;;;19.23;72.99;100817.94;5009227;28;102484;-58
2021/06/17 01:33:27;;;;;;;3.60;2.95;;;;;;;19.23;72.93;100823.44;5007587;28;102189;-58
2021/06/17 01:36:02;;;;;;;3.95;3.20;;;;;;;19.23;73.05;100834.47;5006775;28;103819;-58
2021/06/17 01:38:30;;;;;;;3.10;2.90;;;;;;;19.22;73.11;100838.34;4995525;28;102667;-58
2021/06/17 01:40:58;;;;;;;3.50;3.20;;;;;;;19.21;72.81;100837.56;5008348;28;102647;-58
2021/06/17 01:43:27;;;;;;;4.47;2.92;;;;;;;19.22;72.83;100846.63;5011922;28;102606;-59
2021/06/17 01:45:54;;;;;;;3.58;3.28;;;;;;;19.22;73.08;100849.41;5008581;28;102720;-58
2021/06/17 01:48:22;;;;;;;3.40;3.20;;;;;;;19.22;73.16;100849.41;5005512;28;102886;-58
2021/06/17 01:50:51;;;;;;;;;;;;;;;19.21;72.55;100848.59;5011362;28;102280;-58
2021/06/17 01:53:22;;;;;;;4.82;3.20;;;;;;;19.21;72.80;100842.25;5012585;28;102507;-60
2021/06/17 01:55:50;;;;;;;4.00;3.40;;;;;;;19.22;73.12;100843.88;5010424;28;103911;-58
2021/06/17 01:58:19;;;;;;;3.10;2.90;;;;;;;19.21;72.75;100834.00;5008837;28;102141;-58
2021/06/17 02:00:50;;;;;;;3.83;3.53;;;;;;;19.23;72.64;100842.75;5006438;28;102199;-58
2021/06/17 02:03:22;;;;;;;4.30;3.17;;;;;;;19.23;72.57;100828.16;5009829;28;101987;-59
2021/06/17 02:05:50;;;;;;;3.38;3.08;;;;;;;19.23;72.87;100842.75;5001096;28;104005;-59
2021/06/17 02:08:19;;;;;;;3.30;3.03;;;;;;;19.24;72.83;100836.09;5007436;28;102225;-59
2021/06/17 02:10:46;;;;;;;4.63;3.20;;;;;;;19.23;72.40;100842.75;5006625;28;102357;-59
2021/06/17 02:13:16;;;;;;;3.50;3.20;;;;;;;19.23;72.95;100844.72;5001053;28;102111;-58
2021/06/17 02:15:44;;;;;;;3.10;2.90;;;;;;;19.23;72.54;100839.19;5005039;28;104113;-59
2021/06/17 02:18:14;;;;;;;3.13;2.88;;;;;;;19.24;72.81;100840.81;5019894;27;102133;-59
2021/06/17 02:20:42;;;;;;;3.28;2.97;;;;;;;19.22;72.50;100838.34;5011643;28;102558;-58
2021/06/17 02:23:12;;;;;;;3.40;3.10;;;;;;;19.23;72.62;100834.47;5008698;28;102408;-58
2021/06/17 02:25:40;;;;;;;3.33;3.03;;;;;;;19.24;72.67;100836.09;5006282;28;103873;-58
2021/06/17 02:28:12;;;;;;;3.37;3.07;;;;;;;19.23;72.42;100845.53;5012599;28;102657;-58
2021/06/17 02:30:41;;;;;;;3.03;2.83;;;;;;;19.23;72.62;100840.00;4992963;28;102641;-59
2021/06/17 02:33:13;;;;;;;3.05;2.85;;;;;;;19.22;72.55;100843.88;5008568;28;102689;-59
2021/06/17 02:35:43;;;;;;;3.15;2.92;;;;;;;19.23;72.46;100851.03;5005399;28;103812;-59
2021/06/17 02:38:14;;;;;;;3.17;2.95;;;;;;;19.24;72.74;100855.41;5017871;28;103233;-59
2021/06/17 02:40:44;;;;;;;2.97;2.78;;;;;;;19.24;72.92;100858.16;4989102;28;102784;-59
2021/06/17 02:43:15;;;;;;;2.97;2.75;;;;;;;19.22;72.37;100846.63;5013602;28;102513;-58
2021/06/17 02:45:44;;;;;;;3.10;2.80;;;;;;;19.21;72.81;100848.59;5012128;28;104305;-58
2021/06/17 02:48:12;;;;;;;3.50;3.22;;;;;;;19.20;72.79;100852.50;5006656;28;103162;-58
2021/06/17 02:50:40;;;;;;;3.53;3.22;;;;;;;19.19;72.68;100852.84;5003888;28;103889;-58
2021/06/17 02:53:07;;;;;;;3.40;3.10;;;;;;;19.20;72.89;100854.44;5010284;28;102420;-59
2021/06/17 02:55:33;;;;;;;4.43;3.28;;;;;;;19.20;72.54;100857.22;5010737;28;103893;-58
2021/06/17 02:58:16;;;;;;;3.20;3.00;;;;;;;19.18;72.46;100864.97;5010055;28;102154;-58
2021/06/17 03:00:50;;;;;;;3.58;3.30;;;;;;;19.19;72.87;100858.34;5002961;28;102612;-58
2021/06/17 03:03:23;;;;;;;3.00;2.80;;;;;;;19.18;73.01;100870.50;5007159;28;102323;-58
2021/06/17 03:05:56;;;;;;;3.20;3.00;;;;;;;19.18;72.82;100870.50;4995943;28;103788;-58
2021/06/17 03:08:27;;;;;;;4.43;3.00;;;;;;;19.17;72.47;100874.41;5009890;28;102074;-58
2021/06/17 03:10:59;;;;;;;3.83;3.10;;;;;;;19.17;72.92;100868.88;5008297;28;102420;-58
2021/06/17 03:13:29;;;;;;;5.13;3.28;;;;;;;19.16;72.57;100872.78;5000712;28;102135;-58
2021/06/17 03:15:58;;;;;;;3.65;3.35;;;;;;;19.16;72.82;100867.28;5005180;28;104177;-57
2021/06/17 03:18:26;;;;;;;3.33;3.00;;;;;;;19.17;72.59;100879.91;5008636;28;102390;-58
2021/06/17 03:20:57;;;;;;;3.40;3.05;;;;;;;19.17;72.46;100879.91;4996267;28;102440;-58
2021/06/17 03:23:26;;;;;;;3.92;3.63;;;;;;;19.15;72.76;100876.69;5011093;28;102253;-59
2021/06/17 03:25:55;;;;;;;3.85;3.55;;;;;;;19.15;72.40;100877.50;5009660;28;104030;-59
2021/06/17 03:28:24;;;;;;;3.55;3.25;;;;;;;19.16;72.59;100883.81;5009311;28;102524;-59
2021/06/17 03:30:51;;;;;;;;;;;;;;;19.16;72.56;100883.81;5009830;28;102177;-59
2021/06/17 03:33:23;;;;;;;3.83;3.55;;;;;;;19.15;72.46;100887.72;5011099;28;102421;-59
2021/06/17 03:35:52;;;;;;;3.20;3.00;;;;;;;19.15;72.47;100888.53;5009208;28;103855;-59
2021/06/17 03:38:20;;;;;;;3.53;3.28;;;;;;;19.14;72.44;100888.84;5010425;28;102611;-59
2021/06/17 03:40:48;;;;;;;4.77;3.70;;;;;;;19.14;72.52;100897.13;5010407;28;102640;-59
2021/06/17 03:43:16;;;;;;;3.50;3.20;;;;;;;19.15;72.39;100893.25;5001233;28;102153;-58
2021/06/17 03:45:44;;;;;;;4.18;3.78;;;;;;;19.14;72.31;100897.94;5003117;28;103884;-59
2021/06/17 03:48:13;;;;;;;3.42;3.17;;;;;;;19.14;72.59;100892.41;5004654;28;102426;-58
2021/06/17 03:50:41;;;;;;;3.47;3.20;;;;;;;19.15;72.61;100885.78;5006786;28;102455;-59
2021/06/17 03:53:11;;;;;;;3.63;3.00;;;;;;;19.15;72.49;100894.06;5012782;28;102719;-58
2021/06/17 03:55:40;;;;;;;4.07;3.55;;;;;;;19.15;72.52;100882.22;5004391;28;104839;-59
2021/06/17 03:58:06;;;;;;;4.13;3.60;;;;;;;19.14;72.39;100878.63;5007501;28;102401;-58
2021/06/17 04:00:33;;;;;;;3.67;3.38;;;;;;;19.17;72.55;100885.44;4995322;28;102728;-59
2021/06/17 04:03:04;;;;;;;4.78;3.88;;;;;;;19.16;72.47;100889.34;5007935;28;102526;-59
2021/06/17 04:05:31;;;;;;;3.38;3.08;;;;;;;19.15;72.50;100896.81;4986756;28;103930;-59
2021/06/17 04:08:00;;;;;;;4.22;3.58;;;;;;;19.17;72.42;100899.22;5005401;28;102414;-59
2021/06/17 04:10:29;;;;;;;;;;;;;;;19.15;72.47;100898.75;5007141;28;102516;-59
2021/06/17 04:12:58;;;;;;;4.20;3.80;;;;;;;19.17;72.44;100902.81;5005099;28;102474;-59
2021/06/17 04:15:25;;;;;;;;;;;;;;;19.18;72.45;100907.16;4995757;28;104346;-59
2021/06/17 04:17:55;;;;;;;3.25;3.05;;;;;;;19.18;72.47;100900.84;5005492;28;102096;-59
2021/06/17 04:20:23;;;;;;;;;;;;;;;19.17;72.30;100893.72;5011834;28;102525;-57
2021/06/17 04:22:53;;;;;;;3.90;3.60;;;;;;;19.20;72.20;100895.84;5010137;28;102252;-57
2021/06/17 04:25:20;;;;;;;3.70;3.40;;;;;;;19.18;71.77;100887.06;5008208;28;104065;-57
2021/06/17 04:27:51;;;;;;;3.50;3.20;;;;;;;19.18;72.66;100881.53;5008270;28;102510;-57
2021/06/17 04:30:18;;;;;;;3.60;3.25;;;;;;;19.18;72.55;100882.34;5009021;28;102445;-57
2021/06/17 04:32:48;;;;;;;4.43;3.28;;;;;;;19.18;72.22;100878.78;5011667;28;102390;-57
2021/06/17 04:35:17;;;;;;;3.70;3.30;;;;;;;19.18;72.37;100881.53;5006254;28;103931;-56
2021/06/17 04:37:44;;;;;;;3.72;3.33;;;;;;;19.19;72.31;100874.91;4990528;28;102666;-57
2021/06/17 04:40:13;;;;;;;3.13;2.92;;;;;;;19.18;72.36;100876.03;5011126;28;102898;-57
2021/06/17 04:42:40;;;;;;;3.78;2.97;;;;;;;19.19;72.65;100878.47;5011003;28;102768;-57
2021/06/17 04:45:09;;;;;;;3.75;3.45;;;;;;;19.19;72.65;100872.16;5007847;28;103723;-57
2021/06/17 04:47:38;;;;;;;3.53;3.22;;;;;;;19.19;72.42;100872.94;5009244;28;102343;-56
2021/06/17 04:50:07;;;;;;;4.13;3.72;;;;;;;19.20;72.40;100871.00;5007527;28;102287;-57
2021/06/17 04:52:39;;;;;;;5.60;3.60;;;;;;;19.22;72.65;100871.47;5008156;28;102225;-57
2021/06/17 04:55:07;;;;;;;3.50;3.20;;;;;;;19.22;72.27;100868.72;5006862;28;103251;-57
2021/06/17 04:57:33;;;;;;;4.13;3.80;;;;;;;19.24;72.29;100874.72;4991194;28;102502;-57
2021/06/17 05:00:00;;;;;;;3.70;3.40;;;;;;;19.23;72.36;100866.78;5006392;28;102358;-58
2021/06/17 05:02:28;;;;;;;3.65;3.42;;;;;;;19.23;72.75;100875.88;5001947;28;102678;-58
2021/06/17 05:04:54;;;;;;;3.20;3.00;;;;;;;19.24;72.16;100869.22;5000157;28;104055;-58
2021/06/17 05:07:27;;;;;;;3.88;3.53;;;;;;;19.25;72.55;100881.06;4995970;28;102206;-58
2021/06/17 05:12:39;;;;;;;3.75;3.25;;;;;;;19.23;72.35;100884.16;5008547;28;102583;-59
2021/06/17 05:15:06;;;;;;;7.45;4.15;;;;;;;19.21;72.60;100880.88;5005343;28;104056;-59
2021/06/17 05:17:35;;;;;;;9.23;4.05;;;;;;;19.17;73.03;100889.00;5008001;28;103759;-59
2021/06/17 05:20:01;;;;;;;6.47;3.67;;;;;;;19.19;72.68;100894.22;5005583;28;102416;-60
2021/06/17 05:22:29;;;;;;;8.30;3.72;;;;;;;19.19;72.76;100899.72;5006569;28;103084;-59
2021/06/17 05:24:55;;;;;;;7.45;3.80;;;;;;;19.17;73.08;100902.00;5000251;28;102722;-59
2021/06/17 05:27:22;;;;;;;9.93;4.20;;;;;;;19.17;72.86;100904.75;5007844;28;102139;-59
2021/06/17 05:29:49;;;;;;;7.72;3.95;;;;;;;19.17;72.79;100902.00;5007108;28;102453;-59
2021/06/17 05:32:16;;;;;;;11.02;4.18;;;;;;;19.19;73.06;100908.00;5001476;28;103629;-59
2021/06/17 05:34:44;;;;;;;9.25;4.05;;;;;;;19.15;73.25;100901.53;5006258;28;104102;-59
2021/06/17 05:37:10;;;;;;;8.83;4.20;;;;;;;19.18;73.33;100920.16;5006736;28;103582;-59
2021/06/17 05:39:37;;;;;;;5.13;4.22;;;;;;;19.20;73.15;100920.66;4998530;28;103226;-58
2021/06/17 05:42:05;;;;;;;4.43;4.03;;;;;;;19.19;73.00;100921.81;4993522;28;102788;-63
2021/06/17 05:44:31;;;;;;;7.10;4.45;;;;;;;19.18;72.89;100920.16;5005437;28;103732;-58
2021/06/17 05:46:58;;;;;;;6.97;4.13;;;;;;;19.15;73.00;100918.88;5007404;28;102143;-59
2021/06/17 05:49:25;;;;;;;7.35;4.80;;;;;;;19.15;73.12;100915.31;4998336;28;102188;-59
2021/06/17 05:51:53;;;;;;;5.63;3.90;;;;;;;19.13;73.60;100917.56;5008419;28;102628;-60
2021/06/17 05:54:19;;;;;;;4.55;4.15;;;;;;;19.12;72.90;100907.69;5005829;28;104152;-61
2021/06/17 05:56:47;;;;;;;14.93;9.75;;;;;;;19.12;73.32;100894.69;5006276;28;102517;-63
2021/06/17 05:59:13;;;;;;;18.05;11.73;;;;;;;19.11;73.56;100893.09;5006364;28;102384;-59
2021/06/17 06:01:40;;;;;;;17.50;9.32;;;;;;;19.13;73.27;100898.25;5008358;28;102638;-61
2021/06/17 06:04:07;;;;;;;12.18;9.00;;;;;;;19.14;73.36;100897.13;4996507;28;103006;-60
2021/06/17 06:06:33;;;;;;;14.00;7.15;;;;;;;19.11;73.39;100903.28;5004768;28;105900;-60
2021/06/17 06:09:02;;;;;;;5.88;5.38;;;;;;;19.13;73.57;100895.50;4996361;28;102513;-60
2021/06/17 06:11:30;;;;;;;8.82;5.03;;;;;;;19.13;73.57;100890.78;5007526;28;102652;-60
2021/06/17 06:13:56;;;;;;;11.40;5.90;;;;;;;19.11;73.30;100886.72;5002061;28;103940;-60
2021/06/17 06:16:23;;;;;;;11.35;5.60;;;;;;;19.12;73.58;100888.38;5004323;28;102500;-60
2021/06/17 06:18:50;;;;;;;13.75;4.85;;;;;;;19.12;73.14;100897.47;5011014;28;101962;-59
2021/06/17 06:21:17;;;;;;;6.95;4.57;;;;;;;19.12;73.38;100900.22;5017150;28;102364;-60
2021/06/17 06:23:43;;;;;;;13.15;5.10;;;;;;;19.13;73.15;100890.78;5011760;28;103902;-60
2021/06/17 06:26:11;;;;;;;7.68;4.22;;;;;;;19.16;73.18;100889.34;5010173;28;102431;-60
2021/06/17 06:28:38;;;;;;;6.53;4.40;;;;;;;19.15;73.34;100887.72;4994336;28;102316;-59
2021/06/17 06:31:05;;;;;;;5.95;4.57;;;;;;;19.15;73.37;100898.75;5006895;28;102406;-60
2021/06/17 06:33:32;;;;;;;6.75;5.15;;;;;;;19.14;73.40;100906.19;5004546;28;104395;-58
2021/06/17 06:35:58;;;;;;;6.68;4.80;;;;;;;19.17;73.39;100899.22;4997475;28;102346;-59
2021/06/17 06:38:25;;;;;;;7.20;4.72;;;;;;;19.18;73.52;100906.38;5005981;28;102678;-58
2021/06/17 06:40:52;;;;;;;8.50;4.38;;;;;;;19.21;73.43;100920.31;5007743;28;102133;-59
2021/06/17 06:43:21;;;;;;;9.40;5.00;;;;;;;19.23;73.38;100917.25;5003348;28;103891;-58
2021/06/17 06:45:47;;;;;;;6.07;4.90;;;;;;;19.22;72.96;100921.13;4996808;28;102274;-58
2021/06/17 06:48:14;;;;;;;7.45;4.68;;;;;;;19.24;73.10;100923.59;5006815;28;102368;-58
2021/06/17 06:50:40;;;;;;;4.97;4.22;;;;;;;19.25;72.99;100926.00;5006984;28;102225;-59
2021/06/17 06:53:07;;;;;;;4.72;4.25;;;;;;;19.25;73.07;100916.91;4986105;28;103887;-58
2021/06/17 06:55:34;;;;;;;11.00;5.22;;;;;;;19.28;73.32;100930.88;5002441;28;102490;-60
2021/06/17 06:58:01;;;;;;;23.75;5.20;;;;;;;19.25;73.97;100926.00;4998835;28;102701;-56
2021/06/17 07:00:29;;;;;;;15.98;5.78;;;;;;;19.25;73.62;100922.44;5005033;27;102378;-61
2021/06/17 07:02:55;;;;;;;26.90;5.70;;;;;;;19.24;73.88;100918.88;5000855;28;103845;-61
2021/06/17 07:05:22;;;;;;;22.90;6.78;;;;;;;19.21;74.42;100923.09;4985153;28;103320;-62
2021/06/17 07:07:48;;;;;;;14.75;5.25;;;;;;;19.20;74.00;100912.38;5004617;28;102594;-61
2021/06/17 07:10:15;;;;;;;14.40;4.93;;;;;;;19.23;73.95;100916.44;4991916;28;104457;-62
2021/06/17 07:12:44;;;;;;;9.02;5.43;;;;;;;19.23;74.02;100916.44;5005178;28;104500;-61
2021/06/17 07:15:12;;;;;;;15.48;5.68;;;;;;;19.22;74.03;100926.66;5004241;28;102233;-60
2021/06/17 07:17:40;;;;;;;6.20;4.78;;;;;;;19.23;74.13;100933.81;4993654;28;102414;-61
2021/06/17 07:20:07;;;;;;;6.35;5.00;;;;;;;19.24;74.43;100940.13;5012650;28;102332;-61
2021/06/17 07:22:34;;;;;;;6.60;5.10;;;;;;;19.24;74.06;100935.44;5008956;28;103054;-61
2021/06/17 07:25:01;;;;;;;14.57;5.78;;;;;;;19.30;74.66;100942.41;4999613;28;102375;-59
2021/06/17 07:27:28;;;;;;;8.82;5.10;;;;;;;19.32;74.48;100937.38;5006961;28;102332;-60
2021/06/17 07:29:54;;;;;;;6.82;4.80;;;;;;;19.30;73.88;100945.19;5003561;28;102501;-59
2021/06/17 07:32:21;;;;;;;12.18;5.30;;;;;;;19.31;74.33;100952.31;5007898;28;103843;-59
2021/06/17 07:34:49;;;;;;;7.35;5.10;;;;;;;19.30;73.86;100949.88;5005874;28;102568;-59
2021/06/17 07:37:16;;;;;;;11.75;5.40;;;;;;;19.28;73.57;100952.16;5010401;28;102736;-59
2021/06/17 07:39:43;;;;;;;6.13;4.90;;;;;;;19.29;74.01;100953.75;5008448;28;102456;-59
2021/06/17 07:42:10;;;;;;;9.30;5.10;;;;;;;19.28;73.97;100941.91;4986085;28;104095;-59
2021/06/17 07:44:37;;;;;;;7.57;5.18;;;;;;;19.28;73.69;100944.66;4990719;28;102443;-59
2021/06/17 07:47:05;;;;;;;7.03;4.90;;;;;;;19.28;73.68;100947.44;5002663;28;102098;-59
2021/06/17 07:49:31;;;;;;;11.95;5.25;;;;;;;19.28;73.89;100947.44;5008603;28;102298;-58
2021/06/17 07:51:59;;;;;;;8.57;4.75;;;;;;;19.29;73.69;100948.25;4991322;28;104069;-59
2021/06/17 07:54:26;;;;;;;6.90;4.22;;;;;;;19.29;73.45;100951.81;4990742;28;102316;-59
2021/06/17 07:56:54;;;;;;;6.45;4.65;;;;;;;19.29;73.59;100951.00;5010358;28;102168;-60
2021/06/17 07:59:22;;;;;;;7.60;5.70;;;;;;;19.32;73.82;100953.91;4990434;28;102857;-60
2021/06/17 08:01:50;;;;;;;19.38;6.15;;;;;;;19.31;74.67;100957.81;5006841;28;103944;-60
2021/06/17 08:04:17;;;;;;;15.43;6.77;;;;;;;19.32;75.01;100962.19;4987358;28;102704;-60
2021/06/17 08:06:44;;;;;;;18.88;6.25;;;;;;;19.35;75.18;100971.78;5005339;28;102337;-62
2021/06/17 08:09:18;;;;;;;24.83;7.70;;;;;;;19.36;75.53;100981.69;5010813;28;102539;-63
2021/06/17 08:11:45;;;;;;;23.20;7.00;;;;;;;19.34;75.75;100984.78;5013133;28;103835;-62
2021/06/17 08:14:12;;;;;;;22.67;6.35;;;;;;;19.35;75.63;100989.16;5010504;28;102718;-61
2021/06/17 08:16:39;;;;;;;18.58;6.97;;;;;;;19.35;76.13;101002.94;5002253;28;102107;-62
2021/06/17 08:19:05;;;;;;;16.80;6.03;;;;;;;19.34;75.39;101011.56;5008992;28;102588;-63
2021/06/17 08:21:31;;;;;;;13.10;6.07;;;;;;;19.33;76.03;101010.75;4990400;28;104263;-63
2021/06/17 08:23:58;;;;;;;17.83;6.85;;;;;;;19.33;75.82;101024.56;5006534;28;102798;-65
2021/06/17 08:26:26;;;;;;;13.13;6.57;;;;;;;19.33;75.58;101023.72;4999615;28;102596;-63
2021/06/17 08:28:52;;;;;;;9.60;5.70;;;;;;;19.31;75.37;101021.28;5003419;28;102655;-62
2021/06/17 08:31:19;;;;;;;11.77;6.47;;;;;;;19.31;75.97;101018.53;4984225;28;103397;-62
2021/06/17 08:33:45;;;;;;;10.23;5.90;;;;;;;19.29;76.17;101008.94;5003529;28;103332;-62
2021/06/17 08:36:13;;;;;;;19.15;6.57;;;;;;;19.29;76.50;101008.94;4983237;28;102083;-62
2021/06/17 08:38:43;;;;;;;10.00;5.93;;;;;;;19.30;76.83;101011.41;4987127;28;102642;-62
2021/06/17 08:41:09;;;;;;;7.10;5.97;;;;;;;19.31;76.54;101015.78;5002141;28;104013;-61
2021/06/17 08:43:37;;;;;;;12.15;6.93;;;;;;;19.29;76.09;101001.47;5003341;28;102571;-61
2021/06/17 08:46:05;;;;;;;11.10;6.70;;;;;;;19.29;76.21;101004.22;4997956;28;102446;-60
2021/06/17 08:48:32;;;;;;;12.95;7.25;;;;;;;19.30;76.18;101000.38;5002526;28;102903;-62
2021/06/17 08:51:00;;;;;;;8.73;6.68;;;;;;;19.30;75.87;101000.38;5000707;28;104089;-61
2021/06/17 08:53:26;;;;;;;11.60;6.70;;;;;;;19.31;75.15;100998.41;5002642;28;102527;-61
2021/06/17 08:55:53;;;;;;;9.77;6.15;;;;;;;19.30;75.18;100983.00;5000745;28;102457;-61
2021/06/17 08:58:19;;;;;;;5.93;5.30;;;;;;;19.31;75.11;100988.19;5003969;28;102584;-64
2021/06/17 09:00:48;;;;;;;11.88;6.30;;;;;;;19.29;76.61;100990.44;4980423;28;103894;-62
2021/06/17 09:03:16;;;;;;;8.73;5.35;;;;;;;19.28;78.45;100999.84;4981849;28;102616;-61
2021/06/17 09:05:45;;;;;;;11.88;6.57;;;;;;;19.30;78.93;100989.31;4997685;28;102030;-60
2021/06/17 09:08:15;;;;;;;10.40;5.65;;;;;;;19.34;77.66;101000.53;5002623;28;102637;-61
2021/06/17 09:10:42;;;;;;;13.38;6.43;;;;;;;19.34;77.96;101004.09;4979100;28;103906;-62
2021/06/17 09:13:10;;;;;;;8.05;6.10;;;;;;;19.34;78.01;100997.78;4998017;28;102504;-61
2021/06/17 09:15:40;;;;;;;7.03;5.93;;;;;;;19.35;78.13;100988.34;5004525;28;102658;-61
2021/06/17 09:18:23;;;;;;;6.10;5.50;;;;;;;19.36;78.86;100982.50;5002550;28;102333;-61
2021/06/17 09:20:52;;;;;;;14.60;6.55;;;;;;;19.38;78.89;100990.47;4998632;27;104135;-60
2021/06/17 09:23:30;;;;;;;9.13;5.80;;;;;;;19.39;78.44;100981.03;4998546;28;103205;-61
2021/06/17 09:26:00;;;;;;;8.50;6.70;;;;;;;19.39;78.79;100970.81;4998933;28;102503;-61
2021/06/17 09:28:28;;;;;;;16.13;6.82;;;;;;;19.43;78.69;100971.78;5004704;28;102554;-60
2021/06/17 09:30:55;;;;;;;9.02;6.30;;;;;;;19.43;78.10;100973.72;5000999;28;103876;-60
2021/06/17 09:33:25;;;;;;;9.05;6.05;;;;;;;19.45;78.62;100994.34;4999070;28;102627;-61
2021/06/17 09:35:56;;;;;;;8.65;6.20;;;;;;;19.45;78.48;101008.16;4998742;28;102284;-60
2021/06/17 09:38:23;;;;;;;6.18;5.63;;;;;;;19.44;78.03;101017.59;4980995;28;102689;-61
2021/06/17 09:40:50;;;;;;;8.50;5.70;;;;;;;19.45;78.60;101010.13;5004070;28;102701;-59
2021/06/17 09:43:25;;;;;;;11.77;6.28;;;;;;;19.43;78.70;100995.81;5002946;28;102198;-61
2021/06/17 09:45:59;;;;;;;11.52;7.35;;;;;;;19.44;78.39;100984.47;4983982;28;102589;-60
2021/06/17 09:48:39;;;;;;;7.88;5.75;;;;;;;19.43;78.15;100955.22;4986281;28;102737;-60
2021/06/17 09:51:30;;;;;;;8.55;6.25;;;;;;;19.42;77.49;100936.22;5000284;28;103812;-60
2021/06/17 09:54:08;;;;;;;8.65;6.22;;;;;;;19.44;78.05;100937.53;5001307;28;105242;-61
2021/06/17 09:56:36;;;;;;;9.13;6.03;;;;;;;19.44;78.36;100939.50;5003784;28;102629;-62
2021/06/17 09:59:03;;;;;;;12.03;6.67;;;;;;;19.47;78.92;100936.06;4999385;28;103017;-61
2021/06/17 10:01:34;;;;;;;6.15;5.55;;;;;;;19.49;79.24;100930.22;5001112;28;103860;-60
2021/06/17 10:04:04;;;;;;;6.82;5.72;;;;;;;19.51;79.42;100922.41;5001964;28;102639;-67
2021/06/17 10:06:33;;;;;;;15.00;6.72;;;;;;;19.53;78.63;100925.66;4983598;28;104116;-58
2021/06/17 10:09:03;;;;;;;8.85;6.22;;;;;;;19.55;78.88;100917.88;5001526;28;102728;-58
2021/06/17 10:11:30;;;;;;;6.45;5.80;;;;;;;19.56;78.87;100905.69;4994225;28;104525;-58
2021/06/17 10:13:57;;;;;;;7.70;6.63;;;;;;;19.56;78.60;100900.19;4997854;28;102760;-58
2021/06/17 10:16:24;;;;;;;8.00;6.35;;;;;;;19.56;78.20;100894.66;4999296;28;103126;-58
2021/06/17 10:18:51;;;;;;;7.45;6.68;;;;;;;19.56;77.84;100897.41;5004012;28;102690;-59
2021/06/17 10:21:18;;;;;;;10.27;6.72;;;;;;;19.56;78.25;100891.91;5005293;28;103914;-58
2021/06/17 10:23:49;;;;;;;7.68;6.05;;;;;;;19.55;77.94;100891.09;4997166;28;102508;-58
2021/06/17 10:26:20;;;;;;;11.85;6.03;;;;;;;19.55;77.80;100891.09;4996720;28;102715;-59
2021/06/17 10:28:48;;;;;;;12.45;6.05;;;;;;;19.54;77.72;100889.44;5000067;28;105979;-58
2021/06/17 10:31:46;;;;;;;9.27;5.37;;;;;;;19.55;77.63;100890.28;4979699;28;103967;-59
2021/06/17 10:34:41;;;;;;;9.88;6.40;;;;;;;19.54;77.07;100883.13;5006541;28;102509;-58
2021/06/17 10:37:13;;;;;;;14.20;6.47;;;;;;;19.53;77.23;100881.50;4996177;28;102534;-59
2021/06/17 10:39:41;;;;;;;7.25;5.60;;;;;;;19.53;77.40;100876.00;5003776;28;102545;-58
2021/06/17 10:42:13;;;;;;;6.60;5.57;;;;;;;19.52;76.91;100863.34;5002022;28;103876;-59
2021/06/17 10:44:50;;;;;;;12.35;5.70;;;;;;;19.51;77.04;100862.53;4997802;28;102781;-58
2021/06/17 10:48:01;;;;;;;9.43;5.68;;;;;;;19.49;76.29;100851.00;4998031;28;102510;-59
2021/06/17 10:50:32;;;;;;;9.00;5.65;;;;;;;19.50;76.54;100866.41;5002178;28;102769;-59
2021/06/17 10:53:39;;;;;;;10.25;5.88;;;;;;;19.50;76.63;100865.59;5005998;28;104521;-59
2021/06/17 10:56:08;;;;;;;9.77;5.20;;;;;;;19.49;76.65;100856.50;5003572;28;102613;-59
2021/06/17 10:58:58;;;;;;;6.63;5.30;;;;;;;19.49;76.62;100866.75;5004787;28;102846;-59
2021/06/17 11:01:39;;;;;;;11.50;5.63;;;;;;;19.49;76.65;100869.50;4994626;28;102823;-58
2021/06/17 11:04:17;;;;;;;6.35;5.15;;;;;;;19.47;76.14;100869.81;4998672;28;104101;-59
2021/06/17 11:07:10;;;;;;;7.10;5.37;;;;;;;19.47;76.09;100869.00;5007770;28;103060;-60
2021/06/17 11:09:47;;;;;;;8.65;6.22;;;;;;;19.47;76.39;100866.25;5003652;28;102656;-59
2021/06/17 11:12:58;;;;;;;5.82;5.30;;;;;;;19.47;75.81;100869.00;5009058;28;102149;-65
2021/06/17 11:15:42;;;;;;;6.10;5.40;;;;;;;19.45;76.78;100863.81;4998807;28;102782;-61
2021/06/17 11:18:09;;;;;;;6.50;5.45;;;;;;;19.45;76.90;100856.34;5000921;28;103573;-60
2021/06/17 11:20:39;;;;;;;5.90;5.07;;;;;;;19.47;76.60;100863.50;5003321;28;104130;-61
2021/06/17 11:23:06;;;;;;;7.15;5.47;;;;;;;19.47;76.57;100855.22;5002425;28;102812;-61
2021/06/17 11:25:38;;;;;;;8.52;5.80;;;;;;;19.46;76.52;100848.88;5001887;28;104295;-61
2021/06/17 11:28:07;;;;;;;6.82;5.80;;;;;;;19.45;76.56;100852.78;5000770;28;102815;-61
2021/06/17 11:30:54;;;;;;;;;;;;;;;19.45;75.96;100863.81;5001363;28;102674;-61